Time;durP1;ratioP1;P1;durP2;ratioP2;P2;SDS_P1;SDS_P2;PMS_P1;PMS_P2;Temp;Humidity;BMP_temperature;BMP_pressure;BME280_temperature;BME280_humidity;BME280_pressure;Samples;Min_cycle;Max_cycle;Signal;HPM_P1;HPM_P2
2024/01/05 00:00:52;;;;;;;50.35;26.83;;;7.60;77.90;;;;;;5058156;28;20033;-68
2024/01/05 00:03:18;;;;;;;47.83;25.90;;;7.70;77.90;;;;;;5057902;28;20028;-68
2024/01/05 00:05:44;;;;;;;50.30;25.30;;;7.60;77.80;;;;;;5057838;28;20033;-68
2024/01/05 00:08:10;;;;;;;41.30;23.35;;;7.60;77.70;;;;;;5057821;28;20100;-68
2024/01/05 00:10:36;;;;;;;47.92;23.75;;;7.60;77.70;;;;;;5057974;28;20025;-66
2024/01/05 00:13:02;;;;;;;44.25;23.52;;;7.50;77.70;;;;;;5057984;28;20400;-68
2024/01/05 00:15:28;;;;;;;37.38;21.95;;;7.60;77.70;;;;;;5057907;28;20435;-68
2024/01/05 00:17:53;;;;;;;42.85;23.25;;;7.50;77.50;;;;;;5057476;28;20025;-68
2024/01/05 00:20:19;;;;;;;36.85;19.90;;;7.50;77.40;;;;;;5057536;28;20029;-67
2024/01/05 00:22:45;;;;;;;38.38;20.23;;;7.40;77.50;;;;;;5057762;28;20013;-68
2024/01/05 00:25:11;;;;;;;37.67;19.75;;;7.40;77.50;;;;;;5057380;28;20029;-67
2024/01/05 00:27:37;;;;;;;37.58;20.02;;;7.40;77.40;;;;;;5057358;28;20021;-66
2024/01/05 00:30:04;;;;;;;35.40;19.60;;;7.40;77.30;;;;;;5057337;28;20454;-67
2024/01/05 00:32:30;;;;;;;36.95;20.20;;;7.30;77.30;;;;;;5057540;28;20104;-67
2024/01/05 00:34:56;;;;;;;37.15;19.40;;;7.30;77.20;;;;;;5039812;28;20398;-66
2024/01/05 00:37:22;;;;;;;37.22;19.73;;;7.20;77.00;;;;;;5039422;28;20373;-68
2024/01/05 00:39:48;;;;;;;39.20;20.13;;;7.20;77.20;;;;;;5057226;28;20072;-66
2024/01/05 00:42:14;;;;;;;35.30;18.50;;;7.20;77.40;;;;;;5057431;28;20117;-65
2024/01/05 00:44:41;;;;;;;39.58;19.85;;;7.20;77.50;;;;;;5057086;28;20057;-68
2024/01/05 00:47:07;;;;;;;32.65;16.60;;;7.20;77.40;;;;;;5056975;28;20041;-66
2024/01/05 00:49:33;;;;;;;33.58;18.02;;;7.20;77.20;;;;;;5057555;28;20032;-66
2024/01/05 00:51:59;;;;;;;32.55;16.42;;;7.20;77.30;;;;;;5056959;28;20021;-66
2024/01/05 00:54:25;;;;;;;33.85;18.63;;;7.20;77.30;;;;;;5057155;28;20029;-65
2024/01/05 00:56:51;;;;;;;34.38;17.13;;;7.10;77.20;;;;;;5056732;28;20063;-66
2024/01/05 00:59:20;;;;;;;35.35;18.02;;;7.10;76.80;;;;;;5039357;28;20456;-66
2024/01/05 01:01:47;;;;;;;34.47;17.90;;;7.10;77.00;;;;;;5057298;28;20036;-66
2024/01/05 01:04:13;;;;;;;33.58;17.45;;;7.10;77.00;;;;;;5057007;28;20020;-66
2024/01/05 01:06:39;;;;;;;30.70;16.48;;;7.10;77.10;;;;;;5038991;28;20476;-68
2024/01/05 01:09:05;;;;;;;31.15;15.57;;;7.00;76.70;;;;;;5056914;28;20033;-67
2024/01/05 01:11:31;;;;;;;32.83;15.90;;;7.00;76.60;;;;;;5056520;28;20075;-68
2024/01/05 01:13:57;;;;;;;37.60;16.80;;;6.90;76.60;;;;;;5056575;28;20033;-65
2024/01/05 01:16:23;;;;;;;31.52;16.13;;;6.90;76.80;;;;;;5056717;28;20025;-66
2024/01/05 01:18:49;;;;;;;32.55;15.35;;;6.90;76.90;;;;;;5056968;28;20450;-68
2024/01/05 01:21:15;;;;;;;32.25;16.23;;;6.90;76.90;;;;;;5056993;28;20025;-68
2024/01/05 01:23:40;;;;;;;30.85;15.43;;;6.90;76.90;;;;;;5006118;28;20021;-65
2024/01/05 01:26:07;;;;;;;30.10;15.38;;;6.90;76.90;;;;;;5056902;28;20029;-68
2024/01/05 01:28:33;;;;;;;32.58;15.20;;;6.90;76.70;;;;;;5056516;28;20418;-67
2024/01/05 01:30:59;;;;;;;31.10;15.35;;;6.90;76.60;;;;;;5056840;28;20033;-66
2024/01/05 01:33:25;;;;;;;30.63;15.68;;;6.90;76.50;;;;;;5056472;28;20033;-68
2024/01/05 01:35:51;;;;;;;30.15;15.15;;;6.80;76.50;;;;;;5056216;28;20040;-68
2024/01/05 01:38:17;;;;;;;33.03;16.20;;;6.80;76.70;;;;;;5055739;28;20360;-66
2024/01/05 01:40:47;;;;;;;32.13;16.13;;;6.80;76.70;;;;;;5055805;28;20025;-66
2024/01/05 01:43:21;;;;;;;30.85;15.88;;;6.70;76.70;;;;;;5056279;28;20032;-67
2024/01/05 01:45:48;;;;;;;28.80;15.55;;;6.70;76.90;;;;;;5056528;28;20020;-68
2024/01/05 01:48:17;;;;;;;24.55;13.70;;;6.60;76.80;;;;;;5055789;28;20354;-67
2024/01/05 01:50:44;;;;;;;27.58;14.20;;;6.60;76.80;;;;;;5055854;28;20511;-68
2024/01/05 01:53:13;;;;;;;27.20;13.70;;;6.60;76.80;;;;;;5056125;28;20044;-65
2024/01/05 01:55:41;;;;;;;29.10;15.15;;;6.50;76.80;;;;;;5056328;28;20029;-67
2024/01/05 01:58:08;;;;;;;29.73;16.02;;;6.50;76.70;;;;;;5055631;28;20327;-67
2024/01/05 02:00:34;;;;;;;25.85;14.98;;;6.40;76.50;;;;;;5055975;28;20020;-65
2024/01/05 02:03:03;;;;;;;30.83;15.38;;;6.40;76.20;;;;;;5055967;28;20029;-68
2024/01/05 02:05:29;;;;;;;30.40;15.27;;;6.30;76.30;;;;;;5055634;28;20032;-68
2024/01/05 02:07:58;;;;;;;28.63;14.93;;;6.20;76.10;;;;;;5056102;28;20094;-66
2024/01/05 02:10:24;;;;;;;30.85;15.75;;;6.10;76.10;;;;;;5055537;28;20036;-66
2024/01/05 02:12:50;;;;;;;25.63;15.07;;;6.00;76.10;;;;;;5055792;28;20112;-68
2024/01/05 02:15:17;;;;;;;27.55;13.80;;;5.90;76.10;;;;;;5055475;28;20381;-67
2024/01/05 02:17:43;;;;;;;25.90;14.18;;;5.90;76.00;;;;;;5055595;28;20063;-68
2024/01/05 02:20:09;;;;;;;30.45;16.80;;;5.80;76.30;;;;;;5056458;28;20338;-68
2024/01/05 02:22:38;;;;;;;29.33;14.95;;;5.70;77.00;;;;;;5055942;28;20303;-66
2024/01/05 02:25:04;;;;;;;31.00;14.77;;;5.80;77.40;;;;;;5055353;28;20021;-68
2024/01/05 02:27:30;;;;;;;31.55;15.13;;;5.80;77.40;;;;;;5055171;28;20039;-68
2024/01/05 02:29:56;;;;;;;30.13;14.20;;;5.90;77.40;;;;;;5055537;28;20025;-65
2024/01/05 02:32:22;;;;;;;28.35;14.45;;;5.90;77.40;;;;;;5055821;28;20056;-66
2024/01/05 02:34:48;;;;;;;26.35;14.15;;;5.90;77.40;;;;;;5055540;28;20110;-67
2024/01/05 02:37:14;;;;;;;25.25;13.68;;;6.00;77.20;;;;;;5055106;28;20122;-65
2024/01/05 02:39:40;;;;;;;24.77;12.00;;;6.10;77.30;;;;;;5055456;28;20044;-65
2024/01/05 02:42:06;;;;;;;24.63;12.18;;;6.10;77.40;;;;;;5055444;28;20463;-66
2024/01/05 02:44:32;;;;;;;27.80;13.85;;;6.20;77.30;;;;;;5055429;28;20021;-65
2024/01/05 02:46:57;;;;;;;22.42;11.73;;;6.20;77.20;;;;;;5054868;28;20078;-66
2024/01/05 02:49:23;;;;;;;26.15;12.85;;;6.20;77.10;;;;;;5055151;28;20032;-66
2024/01/05 02:51:49;;;;;;;27.17;13.00;;;6.30;76.90;;;;;;5059256;28;20025;-68
2024/01/05 02:54:15;;;;;;;26.58;13.25;;;6.20;76.90;;;;;;5059184;28;20108;-67
2024/01/05 02:56:41;;;;;;;24.83;12.13;;;6.30;76.80;;;;;;5059164;28;20110;-66
2024/01/05 02:59:07;;;;;;;25.55;12.35;;;6.40;76.90;;;;;;5059381;28;20071;-66
2024/01/05 03:01:33;;;;;;;24.80;12.80;;;6.40;76.70;;;;;;5059381;28;20029;-65
2024/01/05 03:04:01;;;;;;;25.85;13.40;;;6.40;76.60;;;;;;5059299;28;20407;-67
2024/01/05 03:06:27;;;;;;;26.08;13.02;;;6.40;76.60;;;;;;5058897;28;20044;-65
2024/01/05 03:08:53;;;;;;;25.30;12.93;;;6.40;76.20;;;;;;5058912;28;20021;-68
2024/01/05 03:11:19;;;;;;;24.80;12.98;;;6.40;76.00;;;;;;5058952;28;20039;-67
2024/01/05 03:13:45;;;;;;;25.10;12.55;;;6.40;76.20;;;;;;5058908;28;20025;-67
2024/01/05 03:16:11;;;;;;;25.90;13.32;;;6.50;76.20;;;;;;5059375;28;20103;-68
2024/01/05 03:18:37;;;;;;;24.00;12.25;;;6.40;76.20;;;;;;5058665;28;20068;-68
2024/01/05 03:21:03;;;;;;;27.40;13.98;;;6.50;76.20;;;;;;5058758;28;20052;-65
2024/01/05 03:23:29;;;;;;;27.33;14.13;;;6.50;76.20;;;;;;5058712;28;20017;-67
2024/01/05 03:25:56;;;;;;;26.27;13.25;;;6.50;76.30;;;;;;5058673;28;20025;-68
2024/01/05 03:28:22;;;;;;;26.75;13.77;;;6.60;76.30;;;;;;5058752;28;20044;-68
2024/01/05 03:30:48;;;;;;;32.60;15.77;;;6.60;76.40;;;;;;5058818;28;20076;-65
2024/01/05 03:33:14;;;;;;;31.67;15.88;;;6.60;76.40;;;;;;5058791;28;20476;-66
2024/01/05 03:35:41;;;;;;;29.33;14.80;;;6.70;76.40;;;;;;5058722;28;20044;-66
2024/01/05 03:38:07;;;;;;;31.38;15.23;;;6.70;76.30;;;;;;5058325;28;20021;-68
2024/01/05 03:40:33;;;;;;;32.92;16.13;;;6.70;76.30;;;;;;5058385;28;20096;-66
2024/01/05 03:42:59;;;;;;;33.90;16.38;;;6.80;76.40;;;;;;5058352;28;20108;-68
2024/01/05 03:45:25;;;;;;;33.22;16.10;;;6.80;76.40;;;;;;5058600;28;20024;-67
2024/01/05 03:47:51;;;;;;;34.35;16.02;;;6.80;76.40;;;;;;5058199;28;20045;-66
2024/01/05 03:50:17;;;;;;;36.85;17.58;;;6.80;76.40;;;;;;5058200;28;20029;-68
2024/01/05 03:52:43;;;;;;;34.72;17.83;;;6.80;76.40;;;;;;5058199;28;20096;-68
2024/01/05 03:55:09;;;;;;;39.72;17.80;;;6.80;76.40;;;;;;5040492;28;20508;-68
2024/01/05 03:57:34;;;;;;;36.65;18.45;;;6.90;76.40;;;;;;5057966;28;20028;-68
2024/01/05 04:00:00;;;;;;;45.05;22.15;;;6.90;76.40;;;;;;5058544;28;20033;-65
2024/01/05 04:02:26;;;;;;;43.22;20.17;;;6.90;76.60;;;;;;5057310;28;20429;-65
2024/01/05 04:04:52;;;;;;;36.20;17.27;;;6.90;76.60;;;;;;5057976;28;20032;-65
2024/01/05 04:07:18;;;;;;;38.40;18.00;;;6.90;76.60;;;;;;5057839;28;20096;-65
2024/01/05 04:09:44;;;;;;;33.95;17.08;;;6.90;76.60;;;;;;5058073;28;20025;-66
2024/01/05 04:12:11;;;;;;;38.45;18.75;;;6.90;76.60;;;;;;5057808;28;20370;-68
2024/01/05 04:14:37;;;;;;;32.00;17.00;;;6.90;76.30;;;;;;5299660;22;20057;-64
2024/01/05 04:17:03;;;;;;;31.70;16.20;;;6.90;76.30;;;;;;5037756;28;20037;-67
2024/01/05 04:19:29;;;;;;;32.47;16.63;;;6.90;76.50;;;;;;5037602;28;20461;-65
2024/01/05 04:21:56;;;;;;;32.97;15.20;;;6.90;76.60;;;;;;5037960;28;20033;-64
2024/01/05 04:24:22;;;;;;;32.88;16.40;;;6.90;76.70;;;;;;5037622;28;20029;-67
2024/01/05 04:26:48;;;;;;;37.50;16.15;;;6.90;76.60;;;;;;5037628;28;20523;-67
2024/01/05 04:29:14;;;;;;;35.13;16.48;;;6.90;76.60;;;;;;5037508;28;20037;-66
2024/01/05 04:31:40;;;;;;;34.22;16.02;;;6.90;76.60;;;;;;5037537;28;20521;-65
2024/01/05 04:34:06;;;;;;;33.72;16.33;;;6.90;76.50;;;;;;5037432;28;20101;-65
2024/01/05 04:36:32;;;;;;;31.98;15.85;;;6.90;76.70;;;;;;5037416;28;20405;-64
2024/01/05 04:38:58;;;;;;;35.15;16.58;;;6.90;76.50;;;;;;5037313;28;20083;-66
2024/01/05 04:41:25;;;;;;;33.20;16.33;;;6.80;76.70;;;;;;5037582;28;20022;-67
2024/01/05 04:43:51;;;;;;;34.33;16.38;;;6.90;76.90;;;;;;5037255;28;20457;-65
2024/01/05 04:46:18;;;;;;;33.97;17.25;;;6.90;76.80;;;;;;5037514;28;20018;-65
2024/01/05 04:48:44;;;;;;;35.10;16.35;;;6.80;76.80;;;;;;5037455;28;20037;-65
2024/01/05 04:51:10;;;;;;;36.78;16.67;;;6.80;76.90;;;;;;5037666;28;20346;-67
2024/01/05 04:53:36;;;;;;;31.25;15.30;;;6.90;77.00;;;;;;5037016;28;20094;-64
2024/01/05 04:56:03;;;;;;;32.40;14.90;;;6.80;76.90;;;;;;5037309;28;20036;-64
2024/01/05 04:58:29;;;;;;;33.63;16.48;;;6.80;76.80;;;;;;5036862;28;20037;-64
2024/01/05 05:00:55;;;;;;;32.30;16.30;;;6.90;76.80;;;;;;5037490;28;20025;-65
2024/01/05 05:03:21;;;;;;;32.72;14.50;;;6.90;76.90;;;;;;5036861;28;20021;-67
2024/01/05 05:05:47;;;;;;;33.47;16.27;;;6.90;76.90;;;;;;5036858;28;20126;-67
2024/01/05 05:08:14;;;;;;;30.10;15.18;;;6.90;76.70;;;;;;5037362;28;20057;-64
2024/01/05 05:10:40;;;;;;;32.42;15.63;;;6.90;76.70;;;;;;5036688;28;20365;-65
2024/01/05 05:13:06;;;;;;;30.27;14.32;;;6.90;76.70;;;;;;5036464;28;20105;-64
2024/01/05 05:15:32;;;;;;;23.30;12.50;;;6.90;76.80;;;;;;5036747;28;20061;-64
2024/01/05 05:17:58;;;;;;;27.15;12.30;;;6.90;76.70;;;;;;5036513;28;20508;-65
2024/01/05 05:20:24;;;;;;;26.95;13.25;;;6.90;76.60;;;;;;5036544;28;20021;-67
2024/01/05 05:22:50;;;;;;;21.70;11.77;;;6.90;76.40;;;;;;5036774;28;20030;-64
2024/01/05 05:25:16;;;;;;;26.00;12.20;;;6.90;76.40;;;;;;5036365;28;20332;-67
2024/01/05 05:27:42;;;;;;;24.10;12.48;;;6.90;76.50;;;;;;5036422;28;20056;-66
2024/01/05 05:30:09;;;;;;;24.85;12.77;;;6.90;76.30;;;;;;5036366;28;20113;-67
2024/01/05 05:32:35;;;;;;;24.25;12.07;;;6.90;76.20;;;;;;5036872;28;20025;-67
2024/01/05 05:35:01;;;;;;;25.90;12.32;;;6.90;76.10;;;;;;5036242;28;20066;-65
2024/01/05 05:37:27;;;;;;;23.48;13.25;;;6.90;76.20;;;;;;5036168;28;20435;-65
2024/01/05 05:39:53;;;;;;;26.10;12.23;;;6.90;76.10;;;;;;5036456;28;20036;-66
2024/01/05 05:42:19;;;;;;;24.13;11.98;;;6.80;76.10;;;;;;5036081;28;20033;-66
2024/01/05 05:44:45;;;;;;;22.60;11.25;;;6.80;76.30;;;;;;5036059;28;20014;-64
2024/01/05 05:47:11;;;;;;;25.02;13.05;;;6.80;76.40;;;;;;5036047;28;20025;-64
2024/01/05 05:49:37;;;;;;;27.25;13.38;;;6.80;76.40;;;;;;5036028;28;20021;-65
2024/01/05 05:52:05;;;;;;;25.73;12.05;;;6.80;76.30;;;;;;5035996;28;20068;-64
2024/01/05 05:54:31;;;;;;;23.38;11.18;;;6.80;75.70;;;;;;5035792;28;20033;-66
2024/01/05 05:56:57;;;;;;;24.88;11.80;;;6.70;75.90;;;;;;5035899;28;20051;-67
2024/01/05 05:59:23;;;;;;;19.58;9.80;;;6.70;76.20;;;;;;5035791;28;20354;-66
2024/01/05 06:01:49;;;;;;;21.90;10.70;;;6.80;76.30;;;;;;5035795;28;20039;-67
2024/01/05 06:04:16;;;;;;;25.80;12.20;;;6.80;76.30;;;;;;5035719;28;20358;-67
2024/01/05 06:06:42;;;;;;;24.52;12.15;;;6.80;76.20;;;;;;5035784;28;20049;-65
2024/01/05 06:09:08;;;;;;;25.33;12.32;;;6.80;76.10;;;;;;5035696;28;20032;-65
2024/01/05 06:11:34;;;;;;;26.92;13.10;;;6.80;76.00;;;;;;5036171;28;20495;-67
2024/01/05 06:14:04;;;;;;;31.77;16.00;;;6.80;75.20;;;;;;5035395;28;20045;-65
2024/01/05 06:16:30;;;;;;;28.60;16.35;;;6.80;75.30;;;;;;5035517;28;20513;-64
2024/01/05 06:18:56;;;;;;;27.90;14.88;;;6.70;75.50;;;;;;5035465;28;20472;-65
2024/01/05 06:21:22;;;;;;;25.90;14.75;;;6.80;75.60;;;;;;5035799;28;20021;-65
2024/01/05 06:23:48;;;;;;;26.83;13.90;;;6.80;75.80;;;;;;5035402;28;20028;-64
2024/01/05 06:26:15;;;;;;;18.42;10.68;;;6.80;75.60;;;;;;5034811;28;20120;-67
2024/01/05 06:28:40;;;;;;;19.77;10.38;;;6.90;75.70;;;;;;5035389;28;20025;-66
2024/01/05 06:31:06;;;;;;;18.13;9.45;;;6.90;75.30;;;;;;5035369;28;20449;-65
2024/01/05 06:33:33;;;;;;;14.93;8.93;;;6.90;75.30;;;;;;5035496;28;20018;-67
2024/01/05 06:35:58;;;;;;;16.10;8.40;;;7.00;75.10;;;;;;5035280;28;20035;-65
2024/01/05 06:38:24;;;;;;;20.05;9.18;;;7.00;75.00;;;;;;5035222;28;20029;-64
2024/01/05 06:43:16;;;;;;;16.98;9.02;;;7.10;75.00;;;;;;5550094;23;20385;-66
2024/01/05 06:45:41;;;;;;;16.33;9.15;;;7.10;74.80;;;;;;5035757;28;20104;-68
2024/01/05 06:48:07;;;;;;;20.05;10.73;;;7.10;74.70;;;;;;5035184;28;20026;-68
2024/01/05 06:50:33;;;;;;;34.28;15.32;;;7.10;74.80;;;;;;5035191;28;20076;-68
2024/01/05 06:52:59;;;;;;;28.77;15.95;;;7.10;75.10;;;;;;5035332;28;20025;-67
2024/01/05 06:55:25;;;;;;;32.50;14.98;;;7.10;75.20;;;;;;5035661;28;20338;-68
2024/01/05 06:57:51;;;;;;;33.47;18.27;;;7.10;75.40;;;;;;5035115;28;20025;-66
2024/01/05 07:00:17;;;;;;;36.50;18.23;;;7.10;75.50;;;;;;5035071;28;20029;-65
2024/01/05 07:02:43;;;;;;;32.30;17.05;;;7.10;75.50;;;;;;5034920;28;20144;-65
2024/01/05 07:05:09;;;;;;;30.75;15.30;;;7.10;75.60;;;;;;5034997;28;20057;-65
2024/01/05 07:07:35;;;;;;;30.98;17.00;;;7.10;75.80;;;;;;5035058;28;20032;-65
2024/01/05 07:10:01;;;;;;;29.88;14.75;;;7.20;75.80;;;;;;5035206;28;20037;-65
2024/01/05 07:12:30;;;;;;;29.52;15.05;;;7.20;75.40;;;;;;5035408;28;20442;-66
2024/01/05 07:14:56;;;;;;;24.98;12.70;;;7.20;75.60;;;;;;5035512;28;20029;-65
2024/01/05 07:17:22;;;;;;;27.13;13.10;;;7.20;75.70;;;;;;5035056;28;20029;-66
2024/01/05 07:19:48;;;;;;;26.50;13.30;;;7.20;75.80;;;;;;5034931;28;20017;-65
2024/01/05 07:22:14;;;;;;;26.67;13.52;;;7.30;75.90;;;;;;5034922;28;20076;-66
2024/01/05 07:24:40;;;;;;;24.55;12.88;;;7.30;75.80;;;;;;5034664;28;20032;-65
2024/01/05 07:27:06;;;;;;;27.40;12.93;;;7.30;76.00;;;;;;5034876;28;20092;-68
2024/01/05 07:29:32;;;;;;;23.25;12.43;;;7.30;75.90;;;;;;5035010;28;20147;-68
2024/01/05 07:31:58;;;;;;;28.75;13.60;;;7.30;75.90;;;;;;5034743;28;20397;-67
2024/01/05 07:34:24;;;;;;;27.88;14.30;;;7.40;76.10;;;;;;5034681;28;20022;-65
2024/01/05 07:36:50;;;;;;;26.60;13.27;;;7.40;76.00;;;;;;5035534;28;20288;-66
2024/01/05 07:39:16;;;;;;;28.70;14.23;;;7.50;75.90;;;;;;5038409;28;20067;-65
2024/01/05 07:41:42;;;;;;;26.75;13.88;;;7.50;75.80;;;;;;5038471;28;20080;-66
2024/01/05 07:44:08;;;;;;;25.08;13.50;;;7.50;75.90;;;;;;5038243;28;20041;-65
2024/01/05 07:46:40;;;;;;;26.90;14.23;;;7.50;75.90;;;;;;5038324;28;20040;-66
2024/01/05 07:49:06;;;;;;;24.20;12.55;;;7.60;76.00;;;;;;5038604;28;20350;-66
2024/01/05 07:51:32;;;;;;;25.50;12.95;;;7.60;76.00;;;;;;5058716;28;20033;-66
2024/01/05 07:53:58;;;;;;;26.63;14.07;;;7.60;75.90;;;;;;5058174;28;20051;-66
2024/01/05 07:56:24;;;;;;;24.52;13.38;;;7.70;75.80;;;;;;5058064;28;20446;-65
2024/01/05 07:58:50;;;;;;;29.50;15.65;;;7.70;75.80;;;;;;5058258;28;20394;-66
2024/01/05 08:01:18;;;;;;;25.85;14.15;;;7.70;75.80;;;;;;5058032;28;20102;-66
2024/01/05 08:03:44;;;;;;;30.25;15.45;;;7.70;75.90;;;;;;5057989;28;20040;-66
2024/01/05 08:06:17;;;;;;;33.55;17.23;;;7.70;76.00;;;;;;5057975;28;20366;-65
2024/01/05 08:08:50;;;;;;;40.15;20.30;;;7.80;76.00;;;;;;5058131;28;20028;-66
2024/01/05 08:11:17;;;;;;;39.15;18.60;;;7.70;76.10;;;;;;5057845;28;20048;-65
2024/01/05 08:13:46;;;;;;;43.30;18.77;;;7.80;76.10;;;;;;5057962;28;20064;-66
2024/01/05 08:16:12;;;;;;;36.40;18.42;;;7.80;76.10;;;;;;5057686;28;20361;-66
2024/01/05 08:18:39;;;;;;;35.72;17.58;;;7.80;76.10;;;;;;5040060;28;20465;-66
2024/01/05 08:21:06;;;;;;;35.85;17.98;;;7.70;76.10;;;;;;5057650;28;20463;-66
2024/01/05 08:23:35;;;;;;;30.95;16.60;;;7.80;76.10;;;;;;5287084;23;20108;-67
2024/01/05 08:26:03;;;;;;;34.70;17.33;;;7.80;76.20;;;;;;5017847;28;20358;-65
2024/01/05 08:28:30;;;;;;;33.03;16.23;;;7.80;76.20;;;;;;5018021;28;20319;-64
2024/01/05 08:30:56;;;;;;;32.88;15.68;;;7.80;76.40;;;;;;5017944;28;20037;-67
2024/01/05 08:33:22;;;;;;;31.00;15.25;;;7.90;76.50;;;;;;5017855;28;20446;-70
2024/01/05 08:35:48;;;;;;;31.33;14.90;;;7.80;76.50;;;;;;5017676;28;20069;-65
2024/01/05 08:38:15;;;;;;;29.25;13.70;;;7.80;76.70;;;;;;5017582;28;20446;-67
2024/01/05 08:40:41;;;;;;;27.52;14.18;;;7.90;76.80;;;;;;5000293;28;20442;-67
2024/01/05 08:43:09;;;;;;;25.75;13.77;;;7.90;76.80;;;;;;5017342;28;20034;-66
2024/01/05 08:45:35;;;;;;;27.23;13.90;;;7.90;76.90;;;;;;5017356;28;20350;-65
2024/01/05 08:48:01;;;;;;;31.88;15.80;;;7.90;77.00;;;;;;5017303;28;20044;-64
2024/01/05 08:50:27;;;;;;;32.35;16.15;;;7.90;77.10;;;;;;5017921;28;20117;-68
2024/01/05 08:52:53;;;;;;;37.13;18.42;;;8.00;77.20;;;;;;5017287;28;20411;-68
2024/01/05 08:55:19;;;;;;;49.70;24.38;;;8.00;77.30;;;;;;5017336;28;20026;-67
2024/01/05 08:57:47;;;;;;;52.78;22.17;;;8.00;77.30;;;;;;5017145;28;20038;-67
2024/01/05 09:00:13;;;;;;;46.88;21.42;;;8.00;77.30;;;;;;5307687;23;20060;-67
2024/01/05 09:02:39;;;;;;;43.95;20.65;;;8.10;77.20;;;;;;5056872;28;20025;-67
2024/01/05 09:05:05;;;;;;;35.20;17.42;;;8.10;77.30;;;;;;5056599;28;20029;-68
2024/01/05 09:07:34;;;;;;;36.72;18.10;;;8.10;77.30;;;;;;5056836;28;20021;-66
2024/01/05 09:10:01;;;;;;;32.75;16.38;;;8.10;77.40;;;;;;5042366;28;20103;-67
2024/01/05 09:12:27;;;;;;;31.10;16.55;;;8.20;77.40;;;;;;5036737;28;20080;-68
2024/01/05 09:14:54;;;;;;;33.63;16.63;;;8.20;77.40;;;;;;5036726;28;20033;-68
2024/01/05 09:17:20;;;;;;;33.15;16.25;;;8.20;77.60;;;;;;5036865;28;20026;-69
2024/01/05 09:19:45;;;;;;;30.88;16.17;;;8.10;77.40;;;;;;5036450;28;20044;-70
2024/01/05 09:22:12;;;;;;;35.25;17.58;;;8.10;77.50;;;;;;5036689;28;20433;-69
2024/01/05 09:24:38;;;;;;;36.63;17.75;;;8.00;78.20;;;;;;5036485;28;20113;-69
2024/01/05 09:27:04;;;;;;;30.42;16.48;;;7.90;78.30;;;;;;5036690;28;20100;-70
2024/01/05 09:29:31;;;;;;;28.95;15.43;;;7.90;78.20;;;;;;5036510;28;20087;-70
2024/01/05 09:31:57;;;;;;;30.27;17.13;;;7.90;78.00;;;;;;5036258;28;20021;-70
2024/01/05 09:34:23;;;;;;;30.50;15.98;;;7.80;78.30;;;;;;5036895;28;20025;-70
2024/01/05 09:36:51;;;;;;;34.35;16.75;;;7.80;78.50;;;;;;5036877;28;20056;-70
2024/01/05 09:39:16;;;;;;;36.20;18.75;;;7.80;78.70;;;;;;5035796;28;20053;-68
2024/01/05 09:41:45;;;;;;;34.63;18.13;;;7.80;78.80;;;;;;5036141;28;20056;-68
2024/01/05 09:46:42;;;;;;;26.02;14.50;;;7.90;79.10;;;;;;5072923;28;20469;-69
2024/01/05 09:49:08;;;;;;;25.45;13.90;;;7.90;79.10;;;;;;5076277;28;20338;-70
2024/01/05 09:51:35;;;;;;;25.65;13.43;;;7.90;79.10;;;;;;5075779;28;20371;-70
2024/01/05 09:54:02;;;;;;;26.52;13.52;;;8.00;79.30;;;;;;5075841;28;20020;-69
2024/01/05 09:56:28;;;;;;;25.13;11.95;;;8.00;79.30;;;;;;5074404;28;20020;-70
2024/01/05 09:58:55;;;;;;;25.40;12.80;;;8.10;79.30;;;;;;5075599;28;20021;-69
2024/01/05 10:01:28;;;;;;;29.75;14.93;;;8.10;79.20;;;;;;5057645;28;20119;-69
2024/01/05 10:03:59;;;;;;;27.05;14.15;;;8.20;79.30;;;;;;5059212;28;20078;-69
2024/01/05 10:06:25;;;;;;;31.60;16.85;;;8.20;79.50;;;;;;5075942;28;20028;-69
2024/01/05 10:08:55;;;;;;;28.08;13.93;;;8.30;79.40;;;;;;5075640;28;20063;-69
2024/01/05 10:11:29;;;;;;;28.08;13.15;;;8.30;79.00;;;;;;5075622;28;20039;-69
2024/01/05 10:14:00;;;;;;;25.23;13.45;;;8.30;78.80;;;;;;5075560;28;20061;-69
2024/01/05 10:16:39;;;;;;;24.13;12.60;;;8.30;79.00;;;;;;5075479;28;20079;-70
2024/01/05 10:19:19;;;;;;;25.58;11.95;;;8.40;79.00;;;;;;5075977;28;20024;-70
2024/01/05 10:21:48;;;;;;;20.88;11.40;;;8.40;78.90;;;;;;5075722;28;20455;-70
2024/01/05 10:24:29;;;;;;;19.33;10.40;;;8.40;78.60;;;;;;5075296;28;20365;-69
2024/01/05 10:27:02;;;;;;;21.20;11.50;;;8.40;78.40;;;;;;5075706;28;20036;-69
2024/01/05 10:29:28;;;;;;;19.77;10.93;;;8.40;78.20;;;;;;5075659;28;20024;-69
2024/01/05 10:32:09;;;;;;;20.85;10.90;;;8.50;78.20;;;;;;5075346;28;20046;-69
2024/01/05 10:34:35;;;;;;;21.08;11.18;;;8.40;78.00;;;;;;5075525;28;20036;-69
2024/01/05 10:37:05;;;;;;;21.05;12.23;;;8.40;78.10;;;;;;5075529;28;20452;-70
2024/01/05 10:39:31;;;;;;;19.67;11.43;;;8.40;78.30;;;;;;5075204;28;20033;-70
2024/01/05 10:42:21;;;;;;;19.05;10.02;;;8.40;78.60;;;;;;5333181;22;20049;-69
2024/01/05 10:44:51;;;;;;;19.33;10.27;;;8.40;78.50;;;;;;5009265;28;20461;-69
2024/01/05 10:47:18;;;;;;;18.60;10.00;;;8.50;78.40;;;;;;5035461;28;20044;-69
2024/01/05 10:49:49;;;;;;;20.10;10.15;;;8.40;78.20;;;;;;5035149;28;20354;-70
2024/01/05 10:52:24;;;;;;;18.75;11.63;;;8.40;78.20;;;;;;5034989;28;20442;-69
2024/01/05 10:54:52;;;;;;;16.70;9.20;;;8.40;78.30;;;;;;5035371;28;20033;-70
2024/01/05 10:57:20;;;;;;;14.20;8.57;;;8.40;78.50;;;;;;5035365;28;20029;-69
2024/01/05 10:59:47;;;;;;;20.50;10.60;;;8.40;78.60;;;;;;5035464;28;20334;-70
2024/01/05 11:02:22;;;;;;;23.73;12.35;;;8.40;78.80;;;;;;5034981;28;20022;-69
2024/01/05 11:05:07;;;;;;;26.30;13.50;;;8.40;79.00;;;;;;5035347;28;20025;-69
2024/01/05 11:07:35;;;;;;;23.05;12.23;;;8.40;79.00;;;;;;5035281;28;20032;-70
2024/01/05 11:10:22;;;;;;;22.15;13.05;;;8.40;79.00;;;;;;5035233;28;20021;-69
2024/01/05 11:13:07;;;;;;;18.15;11.85;;;8.40;79.30;;;;;;5037164;28;20072;-69
2024/01/05 11:15:56;;;;;;;26.42;14.80;;;8.40;79.30;;;;;;5038922;28;20029;-69
2024/01/05 11:18:33;;;;;;;25.05;13.73;;;8.40;79.50;;;;;;5035768;28;20037;-69
2024/01/05 11:21:11;;;;;;;26.05;12.25;;;8.40;79.50;;;;;;5039182;28;20107;-70
2024/01/05 11:23:40;;;;;;;21.00;11.25;;;8.50;79.60;;;;;;5039083;28;20167;-69
2024/01/05 11:26:06;;;;;;;22.88;11.13;;;8.50;79.80;;;;;;5038720;28;20056;-69
2024/01/05 11:28:38;;;;;;;21.33;10.80;;;8.60;79.50;;;;;;5021584;28;20464;-69
2024/01/05 11:31:04;;;;;;;17.80;9.27;;;8.60;79.50;;;;;;5021149;28;20083;-70
2024/01/05 11:33:49;;;;;;;16.90;8.70;;;8.70;79.20;;;;;;5038586;28;20113;-69
2024/01/05 11:36:49;;;;;;;15.15;8.23;;;8.80;79.00;;;;;;5038567;28;20034;-69
2024/01/05 11:39:48;;;;;;;17.23;7.93;;;8.80;78.90;;;;;;5038875;28;20021;-69
2024/01/05 11:42:33;;;;;;;12.52;6.97;;;8.80;78.30;;;;;;5016753;28;20045;-70
2024/01/05 11:45:04;;;;;;;18.77;8.93;;;8.90;78.10;;;;;;5016886;28;20332;-69
2024/01/05 11:50:27;;;;;;;13.82;6.40;;;8.90;78.10;;;;;;5304330;22;20599;-69
2024/01/05 11:53:13;;;;;;;9.15;5.72;;;8.90;78.00;;;;;;5058217;28;20025;-70
2024/01/05 11:55:48;;;;;;;12.07;5.75;;;9.00;78.10;;;;;;5058400;28;20039;-69
2024/01/05 11:58:21;;;;;;;8.65;4.88;;;9.00;78.10;;;;;;5058258;28;20032;-69
2024/01/05 12:00:49;;;;;;;7.43;4.35;;;9.10;78.00;;;;;;5038954;28;20113;-69
2024/01/05 12:03:17;;;;;;;8.60;4.55;;;9.20;77.60;;;;;;5038002;28;20389;-70
2024/01/05 12:05:43;;;;;;;8.65;4.65;;;9.20;77.50;;;;;;5038316;28;20037;-70
2024/01/05 12:08:13;;;;;;;6.28;4.10;;;9.20;77.10;;;;;;5038477;28;20036;-69
2024/01/05 12:10:40;;;;;;;6.80;4.50;;;9.20;77.20;;;;;;5038133;28;20033;-69
2024/01/05 12:13:07;;;;;;;7.93;4.03;;;9.20;77.40;;;;;;5038459;28;20026;-69
2024/01/05 12:15:33;;;;;;;6.95;3.97;;;9.20;77.50;;;;;;5037866;28;20033;-70
2024/01/05 12:18:03;;;;;;;8.73;4.85;;;9.30;77.40;;;;;;5020198;28;20025;-70
2024/01/05 12:20:32;;;;;;;6.93;4.05;;;9.30;77.50;;;;;;5020282;28;20053;-69
2024/01/05 12:22:58;;;;;;;6.25;4.10;;;9.30;77.50;;;;;;5036965;28;20025;-70
2024/01/05 12:25:24;;;;;;;7.25;4.32;;;9.30;77.50;;;;;;5037694;28;20025;-69
2024/01/05 12:27:51;;;;;;;8.05;4.50;;;9.30;77.50;;;;;;5037593;28;20076;-69
2024/01/05 12:30:18;;;;;;;6.20;3.63;;;9.40;77.50;;;;;;5020206;28;20457;-69
2024/01/05 12:32:44;;;;;;;7.53;3.92;;;9.40;77.50;;;;;;5037519;28;20033;-69
2024/01/05 12:35:10;;;;;;;7.47;4.18;;;9.40;77.60;;;;;;5037756;28;20235;-69
2024/01/05 12:37:37;;;;;;;7.50;4.35;;;9.40;77.60;;;;;;5020330;28;20450;-69
2024/01/05 12:40:12;;;;;;;8.75;4.35;;;9.50;77.60;;;;;;5037164;28;20033;-70
2024/01/05 12:42:39;;;;;;;8.05;5.05;;;9.50;77.70;;;;;;5019837;28;20017;-69
2024/01/05 12:45:06;;;;;;;9.90;5.25;;;9.60;77.80;;;;;;5019799;28;20446;-69
2024/01/05 12:47:33;;;;;;;8.25;4.78;;;9.60;77.90;;;;;;5037151;28;20022;-69